Time;durP1;ratioP1;P1;durP2;ratioP2;P2;SDS_P1;SDS_P2;PMS_P1;PMS_P2;Temp;Humidity;BMP_temperature;BMP_pressure;BME280_temperature;BME280_humidity;BME280_pressure;Samples;Min_cycle;Max_cycle;Signal;HPM_P1;HPM_P2
2023/06/10 00:01:06;;;;;;;10.27;7.55;;;;;;;21.03;57.01;101279.56;4934156;29;20057;-85
2023/06/10 00:03:32;;;;;;;8.95;7.10;;;;;;;21.01;57.13;101285.28;4948405;29;20099;-84
2023/06/10 00:05:57;;;;;;;10.90;7.25;;;;;;;21.01;56.51;101279.75;4944450;29;20059;-85
2023/06/10 00:08:24;;;;;;;11.15;8.10;;;;;;;20.95;57.60;101271.28;4914375;29;20098;-85
2023/06/10 00:10:49;;;;;;;13.02;7.80;;;;;;;20.94;56.97;101281.47;4930219;29;20495;-85
2023/06/10 00:13:15;;;;;;;9.65;7.25;;;;;;;20.95;57.23;101279.56;4936899;29;20142;-84
2023/06/10 00:15:41;;;;;;;8.38;7.57;;;;;;;20.84;57.18;101267.78;4937769;29;20093;-84
2023/06/10 00:18:09;;;;;;;8.70;7.68;;;;;;;20.85;57.40;101290.78;4948409;29;20027;-84
2023/06/10 00:20:37;;;;;;;16.23;7.97;;;;;;;20.85;57.12;101282.50;4916235;29;20062;-84
2023/06/10 00:23:03;;;;;;;10.55;7.53;;;;;;;20.81;56.85;101273.66;4948149;29;20059;-84
2023/06/10 00:25:29;;;;;;;11.00;7.65;;;;;;;20.79;56.79;101283.13;4938155;29;20368;-84
2023/06/10 00:27:55;;;;;;;10.82;8.27;;;;;;;20.76;56.88;101278.81;4950675;28;20054;-84
2023/06/10 00:30:21;;;;;;;10.45;7.88;;;;;;;20.75;57.16;101290.94;4950994;29;20043;-84
2023/06/10 00:32:46;;;;;;;14.93;8.15;;;;;;;20.73;56.89;101283.81;4951008;28;20050;-84
2023/06/10 00:35:12;;;;;;;13.23;8.73;;;;;;;20.68;57.41;101283.44;4946963;28;20039;-84
2023/06/10 00:37:38;;;;;;;11.20;8.57;;;;;;;20.65;57.65;101284.63;4933015;29;20027;-84
2023/06/10 00:40:04;;;;;;;10.43;8.10;;;;;;;20.56;57.81;101289.28;4948396;29;20036;-84
2023/06/10 00:42:31;;;;;;;8.77;7.88;;;;;;;20.49;58.65;101287.34;4965266;28;20027;-84
2023/06/10 00:44:56;;;;;;;9.70;7.93;;;;;;;20.46;58.11;101291.25;4966768;28;20403;-84
2023/06/10 00:47:22;;;;;;;12.40;8.32;;;;;;;20.39;58.21;101287.44;4950104;28;20351;-85
2023/06/10 00:49:50;;;;;;;12.48;8.70;;;;;;;20.26;58.63;101285.09;4964373;28;20082;-84
2023/06/10 00:52:17;;;;;;;8.90;8.02;;;;;;;20.24;59.31;101291.84;4934728;29;20387;-84
2023/06/10 00:54:43;;;;;;;10.07;8.70;;;;;;;20.19;59.33;101294.19;4949997;28;20315;-84
2023/06/10 00:57:09;;;;;;;9.15;7.97;;;;;;;20.10;58.79;101291.41;4949579;29;20524;-84
2023/06/10 00:59:35;;;;;;;13.77;8.82;;;;;;;20.03;59.22;101294.97;4951041;28;20035;-84
2023/06/10 01:02:02;;;;;;;12.18;8.05;;;;;;;19.95;60.29;101281.09;4934847;29;20405;-84
2023/06/10 01:04:29;;;;;;;10.23;9.00;;;;;;;19.92;60.31;101290.56;4965881;28;20494;-83
2023/06/10 01:07:10;;;;;;;15.60;8.57;;;;;;;19.80;59.75;101289.94;4950266;28;20019;-84
2023/06/10 01:09:45;;;;;;;10.48;8.40;;;;;;;19.79;60.51;101292.88;4951463;28;20070;-84
2023/06/10 01:12:19;;;;;;;9.43;8.10;;;;;;;19.72;61.22;101294.53;4949935;29;20054;-84
2023/06/10 01:14:46;;;;;;;11.98;8.25;;;;;;;19.58;61.49;101285.78;4939303;28;20039;-83
2023/06/10 01:17:11;;;;;;;11.13;8.30;;;;;;;19.58;61.36;101291.31;4932253;29;20031;-84
2023/06/10 01:19:37;;;;;;;10.65;9.13;;;;;;;19.53;60.75;101295.53;4949070;29;20049;-84
2023/06/10 01:22:03;;;;;;;11.05;8.13;;;;;;;19.46;62.11;101292.56;4951931;28;20027;-84
2023/06/10 01:24:32;;;;;;;12.43;8.50;;;;;;;19.43;61.56;101297.53;4949258;28;20043;-84
2023/06/10 01:27:01;;;;;;;9.93;8.80;;;;;;;19.38;61.39;101296.09;4965314;28;20085;-84
2023/06/10 01:29:37;;;;;;;10.07;8.70;;;;;;;19.32;61.52;101302.25;4949907;28;20058;-84
2023/06/10 01:32:27;;;;;;;9.02;8.13;;;;;;;19.27;61.79;101295.47;4966312;28;20138;-84
2023/06/10 01:34:54;;;;;;;12.45;9.13;;;;;;;19.23;62.49;101296.81;4962950;28;20133;-84
2023/06/10 01:37:24;;;;;;;10.95;9.20;;;;;;;19.11;62.53;101296.16;4933476;29;20293;-83
2023/06/10 01:39:50;;;;;;;10.85;9.30;;;;;;;19.02;64.31;101299.84;4965185;28;20130;-84
2023/06/10 01:42:16;;;;;;;10.80;9.38;;;;;;;18.93;63.80;101292.50;4949412;29;20077;-85
2023/06/10 01:44:42;;;;;;;14.13;9.70;;;;;;;18.87;64.04;101294.00;4929831;29;20114;-84
2023/06/10 01:47:08;;;;;;;12.88;10.02;;;;;;;18.81;64.38;101294.63;4923750;29;20118;-84
2023/06/10 01:49:34;;;;;;;12.52;9.38;;;;;;;18.75;63.54;101293.34;4948891;29;20487;-85
2023/06/10 01:51:59;;;;;;;11.63;9.15;;;;;;;18.80;63.47;101298.41;4933134;29;20085;-84
2023/06/10 01:54:25;;;;;;;12.90;9.68;;;;;;;18.77;63.63;101298.69;4964960;28;20043;-84
2023/06/10 01:56:51;;;;;;;13.85;10.60;;;;;;;18.71;63.88;101296.56;4964447;28;20039;-84
2023/06/10 01:59:16;;;;;;;11.27;9.98;;;;;;;18.70;64.19;101295.69;4944616;28;20043;-83
2023/06/10 02:01:41;;;;;;;10.95;9.82;;;;;;;18.67;63.06;101300.63;4946043;29;20035;-84
2023/06/10 02:04:09;;;;;;;14.27;10.57;;;;;;;18.61;64.42;101304.84;4947424;29;20078;-84
2023/06/10 02:06:35;;;;;;;12.82;11.23;;;;;;;18.50;65.62;101302.28;4951076;29;20039;-84
2023/06/10 02:09:02;;;;;;;12.07;10.32;;;;;;;18.42;65.83;101299.41;4965321;28;20031;-84
2023/06/10 02:11:28;;;;;;;15.27;10.88;;;;;;;18.42;65.22;101304.91;4948662;29;20467;-84
2023/06/10 02:13:54;;;;;;;11.73;10.02;;;;;;;18.37;65.41;101305.34;4944010;28;20035;-85
2023/06/10 02:16:21;;;;;;;12.70;10.60;;;;;;;18.33;66.19;101310.31;4969700;28;20420;-84
2023/06/10 02:18:48;;;;;;;13.48;10.05;;;;;;;18.27;66.56;101302.63;4963590;28;20042;-84
2023/06/10 02:21:14;;;;;;;13.43;10.50;;;;;;;18.18;66.19;101299.91;4948676;29;20135;-84
2023/06/10 02:23:40;;;;;;;13.43;10.57;;;;;;;18.18;65.86;101306.28;4950328;28;20451;-84
2023/06/10 02:26:05;;;;;;;15.20;11.52;;;;;;;18.16;66.41;101305.59;4932384;29;20051;-84
2023/06/10 02:28:31;;;;;;;13.98;11.07;;;;;;;18.17;66.38;101310.06;4948088;29;20399;-85
2023/06/10 02:30:58;;;;;;;12.57;11.23;;;;;;;18.14;65.23;101299.38;4948942;29;20117;-84
2023/06/10 02:33:24;;;;;;;15.48;11.57;;;;;;;18.11;66.35;101307.91;4945422;29;20499;-84
2023/06/10 02:35:50;;;;;;;13.23;11.18;;;;;;;18.09;65.75;101313.59;4945818;29;20117;-84
2023/06/10 02:38:16;;;;;;;14.20;11.10;;;;;;;18.10;66.21;101311.69;4948617;29;20485;-83
2023/06/10 02:40:42;;;;;;;17.30;10.85;;;;;;;18.10;66.29;101315.31;4932731;29;20031;-84
2023/06/10 02:43:09;;;;;;;17.75;11.80;;;;;;;18.03;67.52;101308.66;4948707;28;20061;-84
2023/06/10 02:45:35;;;;;;;12.60;11.23;;;;;;;18.01;66.63;101304.31;4950822;28;20126;-84
2023/06/10 02:48:02;;;;;;;14.93;11.57;;;;;;;17.95;67.67;101308.53;4948993;29;20032;-84
2023/06/10 02:50:28;;;;;;;14.63;12.23;;;;;;;17.97;67.94;101311.13;4932482;29;20239;-85
2023/06/10 02:53:01;;;;;;;15.45;11.93;;;;;;;17.92;68.51;101313.47;4964172;28;20066;-85
2023/06/10 02:55:27;;;;;;;17.60;12.65;;;;;;;17.90;67.11;101307.22;4963927;28;20069;-85
2023/06/10 02:57:57;;;;;;;17.80;11.73;;;;;;;17.86;68.27;101309.44;4965212;28;20035;-84
2023/06/10 03:00:25;;;;;;;15.73;11.65;;;;;;;17.83;68.55;101310.56;4952564;28;20435;-85
2023/06/10 03:02:50;;;;;;;15.32;12.20;;;;;;;17.84;68.44;101311.44;4952652;29;20130;-84
2023/06/10 03:05:19;;;;;;;13.48;11.52;;;;;;;17.72;67.94;101301.56;4949109;29;20032;-85
2023/06/10 03:07:47;;;;;;;17.70;12.15;;;;;;;17.73;68.24;101303.31;4933123;29;20108;-84
2023/06/10 03:10:14;;;;;;;14.38;12.52;;;;;;;17.66;69.50;101308.53;4949140;28;20184;-85
2023/06/10 03:12:40;;;;;;;17.45;12.48;;;;;;;17.64;68.39;101313.31;4934408;29;20058;-84
2023/06/10 03:15:06;;;;;;;194.95;24.58;;;;;;;17.64;68.82;101315.22;4962620;28;20081;-84
2023/06/10 03:17:32;;;;;;;203.40;24.08;;;;;;;17.67;68.80;101314.88;4968749;28;20058;-84
2023/06/10 03:19:57;;;;;;;85.18;16.38;;;;;;;17.61;70.02;101308.09;4962737;28;20030;-84
2023/06/10 03:22:23;;;;;;;40.03;12.85;;;;;;;17.63;69.54;101324.47;4950527;29;20049;-84
2023/06/10 03:24:57;;;;;;;24.63;12.48;;;;;;;17.53;69.25;101317.09;4967554;28;20070;-84
2023/06/10 03:27:23;;;;;;;22.92;13.27;;;;;;;17.54;70.19;101312.47;4931555;29;20036;-84
2023/06/10 03:29:53;;;;;;;22.02;12.00;;;;;;;17.51;69.44;101316.34;4932784;29;20039;-84
2023/06/10 03:32:18;;;;;;;17.10;12.45;;;;;;;17.54;69.10;101326.22;4932826;29;20042;-84
2023/06/10 03:34:47;;;;;;;15.43;12.80;;;;;;;17.52;70.04;101322.72;4961180;28;20403;-85
2023/06/10 03:37:13;;;;;;;19.70;12.45;;;;;;;17.54;69.62;101335.34;4951961;28;20517;-84
2023/06/10 03:39:39;;;;;;;20.40;13.48;;;;;;;17.54;69.04;101337.22;4952193;28;20578;-84
2023/06/10 03:42:06;;;;;;;16.60;13.38;;;;;;;17.51;69.76;101337.50;4952179;29;20019;-84
2023/06/10 03:44:32;;;;;;;16.50;13.30;;;;;;;17.46;69.41;101335.19;4951138;29;20101;-84
2023/06/10 03:46:57;;;;;;;17.45;13.15;;;;;;;17.49;69.17;101339.53;4947987;29;20479;-84
2023/06/10 03:49:26;;;;;;;16.42;13.00;;;;;;;17.44;70.19;101328.06;4935677;29;20035;-85
2023/06/10 03:51:53;;;;;;;16.38;12.88;;;;;;;17.46;70.29;101345.31;4967400;28;20526;-85
2023/06/10 03:54:19;;;;;;;18.77;13.27;;;;;;;17.39;70.99;101335.88;4950206;29;20102;-84
2023/06/10 03:56:45;;;;;;;18.48;13.27;;;;;;;17.38;71.40;101336.91;4951040;28;20039;-84
2023/06/10 03:59:10;;;;;;;17.52;13.40;;;;;;;17.36;71.35;101337.06;4955338;28;20443;-84
2023/06/10 04:01:37;;;;;;;18.33;14.77;;;;;;;17.35;71.44;101335.31;4935807;29;20124;-84
2023/06/10 04:04:03;;;;;;;17.30;13.35;;;;;;;17.36;71.47;101330.69;4951704;28;20039;-84
2023/06/10 04:06:32;;;;;;;17.70;13.52;;;;;;;17.36;71.38;101330.69;4933371;29;20042;-85
2023/06/10 04:08:58;;;;;;;15.88;13.13;;;;;;;17.38;72.42;101334.16;4944935;28;20114;-85
2023/06/10 04:11:26;;;;;;;20.10;13.43;;;;;;;17.42;71.10;101341.97;4949926;29;20046;-84
2023/06/10 04:13:52;;;;;;;15.75;12.93;;;;;;;17.43;70.82;101338.22;4950128;29;20035;-85
2023/06/10 04:16:17;;;;;;;18.77;14.00;;;;;;;17.43;72.00;101340.97;4951254;29;20053;-84
2023/06/10 04:18:43;;;;;;;18.33;12.80;;;;;;;17.46;70.83;101339.81;4950475;29;20368;-84
2023/06/10 04:21:10;;;;;;;20.80;13.00;;;;;;;17.52;71.10;101339.22;4966664;28;20462;-84
2023/06/10 04:23:36;;;;;;;18.35;14.07;;;;;;;17.55;70.45;101341.69;4951265;29;20114;-84
2023/06/10 04:26:05;;;;;;;18.23;13.57;;;;;;;17.52;72.47;101341.97;4933888;29;20051;-85
2023/06/10 04:28:30;;;;;;;16.70;13.35;;;;;;;17.56;71.42;101347.06;4951595;28;20317;-84
2023/06/10 04:30:57;;;;;;;17.15;11.98;;;;;;;17.59;70.36;101349.53;4935347;29;20395;-85
2023/06/10 04:33:23;;;;;;;17.58;13.52;;;;;;;17.62;71.69;101356.59;4967060;28;20182;-85
2023/06/10 04:35:49;;;;;;;15.15;13.32;;;;;;;17.67;70.68;101359.78;4950608;29;20027;-85
2023/06/10 04:38:16;;;;;;;15.35;12.43;;;;;;;17.68;71.64;101366.19;4934774;29;20038;-85
2023/06/10 04:40:42;;;;;;;16.70;12.95;;;;;;;17.68;71.86;101357.94;4966769;28;20118;-84
2023/06/10 04:43:10;;;;;;;18.95;13.95;;;;;;;17.66;71.46;101369.06;4956841;28;20027;-85
2023/06/10 04:45:36;;;;;;;18.67;13.65;;;;;;;17.70;72.49;101358.66;4951202;29;20491;-84
2023/06/10 04:48:01;;;;;;;23.40;12.95;;;;;;;17.74;71.16;101365.63;4950682;28;20034;-85
2023/06/10 04:50:27;;;;;;;15.38;12.88;;;;;;;17.75;72.68;101359.09;4957822;28;20043;-84
2023/06/10 04:52:53;;;;;;;20.25;13.10;;;;;;;17.76;72.59;101358.94;4952057;29;20133;-85
2023/06/10 04:55:18;;;;;;;17.90;13.23;;;;;;;17.77;72.12;101362.59;4948606;28;20027;-84
2023/06/10 04:57:44;;;;;;;19.17;13.23;;;;;;;17.80;72.59;101363.16;4947850;29;20114;-84
2023/06/10 05:00:10;;;;;;;13.68;11.65;;;;;;;17.88;70.23;101362.44;4950873;28;20660;-84
2023/06/10 05:02:35;;;;;;;18.50;12.60;;;;;;;17.91;72.18;101372.31;4966179;28;20458;-85
2023/06/10 05:05:00;;;;;;;15.20;12.30;;;;;;;17.96;70.75;101359.84;4949577;28;20054;-85
2023/06/10 05:07:26;;;;;;;18.35;12.63;;;;;;;18.02;69.78;101369.38;4949446;28;20031;-85
2023/06/10 05:09:51;;;;;;;16.75;11.80;;;;;;;18.05;69.50;101356.19;4965682;28;20023;-84
2023/06/10 05:12:17;;;;;;;18.27;12.27;;;;;;;18.14;69.30;101364.56;4965653;28;20037;-84
2023/06/10 05:14:42;;;;;;;13.82;12.05;;;;;;;18.18;69.15;101361.38;4944246;28;20484;-84
2023/06/10 05:17:07;;;;;;;18.67;12.70;;;;;;;18.20;69.19;101369.50;4962703;28;20142;-85
2023/06/10 05:19:33;;;;;;;17.15;12.32;;;;;;;18.24;68.59;101369.06;4949286;28;20435;-84
2023/06/10 05:21:58;;;;;;;17.02;12.75;;;;;;;18.32;70.78;101368.31;4950424;28;20375;-85
2023/06/10 05:24:23;;;;;;;18.60;12.70;;;;;;;18.35;69.50;101362.50;4949304;29;20031;-84
2023/06/10 05:26:49;;;;;;;17.23;12.75;;;;;;;18.46;69.30;101369.72;4949048;29;20297;-85
2023/06/10 05:29:15;;;;;;;15.82;11.43;;;;;;;18.51;68.30;101362.75;4964833;28;20483;-85
2023/06/10 05:31:41;;;;;;;17.77;13.20;;;;;;;18.56;67.79;101367.81;4950010;29;20023;-84
2023/06/10 05:34:06;;;;;;;15.73;12.15;;;;;;;18.61;68.76;101366.34;4951107;29;20129;-84
2023/06/10 05:36:32;;;;;;;16.13;12.23;;;;;;;18.65;68.21;101361.38;4966438;28;20494;-84
2023/06/10 05:38:58;;;;;;;15.07;11.77;;;;;;;18.70;67.49;101364.63;4964982;28;20043;-85
2023/06/10 05:41:23;;;;;;;15.40;11.32;;;;;;;18.78;67.82;101363.84;4949229;29;20066;-85
2023/06/10 05:43:48;;;;;;;21.60;13.00;;;;;;;18.83;68.73;101369.75;4929377;29;20460;-84
2023/06/10 05:46:14;;;;;;;15.65;11.88;;;;;;;18.83;67.45;101364.25;4930817;29;20020;-85
2023/06/10 05:48:39;;;;;;;17.42;11.80;;;;;;;18.88;66.91;101370.16;4930440;29;20032;-85
2023/06/10 05:51:05;;;;;;;18.45;11.63;;;;;;;18.93;66.65;101367.84;4930880;28;20083;-85
2023/06/10 05:53:31;;;;;;;17.45;12.27;;;;;;;18.98;67.39;101368.25;4950941;28;20031;-84
2023/06/10 05:55:57;;;;;;;18.85;11.95;;;;;;;19.03;67.07;101371.41;4948554;28;20454;-85
2023/06/10 05:58:24;;;;;;;19.70;12.43;;;;;;;19.10;67.38;101375.28;4949414;28;20054;-85
2023/06/10 06:00:50;;;;;;;22.45;12.90;;;;;;;19.14;67.72;101369.47;4950744;29;20027;-85
2023/06/10 06:03:15;;;;;;;15.88;11.35;;;;;;;19.13;66.27;101367.75;4949581;29;20039;-85
2023/06/10 06:05:41;;;;;;;16.33;11.85;;;;;;;19.20;65.60;101377.97;4963729;28;20484;-85
2023/06/10 06:08:07;;;;;;;18.50;12.35;;;;;;;19.22;66.74;101377.84;4949667;29;20177;-85
2023/06/10 06:10:33;;;;;;;17.92;13.00;;;;;;;19.27;65.54;101375.50;4950494;28;20035;-85
2023/06/10 06:13:00;;;;;;;19.98;11.82;;;;;;;19.32;65.94;101373.13;4946342;29;20114;-84
2023/06/10 06:15:25;;;;;;;20.98;12.20;;;;;;;19.39;66.66;101374.22;4947138;29;20043;-85
2023/06/10 06:17:52;;;;;;;18.40;11.90;;;;;;;19.46;65.47;101374.50;4948953;29;20054;-84
2023/06/10 06:20:18;;;;;;;18.60;11.65;;;;;;;19.48;65.97;101369.66;4948414;29;20046;-84
2023/06/10 06:22:44;;;;;;;19.67;12.10;;;;;;;19.56;65.75;101380.81;4949966;28;20054;-85
2023/06/10 06:25:09;;;;;;;17.58;11.55;;;;;;;19.62;65.37;101375.53;4947679;29;20043;-84
2023/06/10 06:27:34;;;;;;;15.82;11.38;;;;;;;19.69;65.31;101369.41;4949110;28;20046;-84
2023/06/10 06:30:00;;;;;;;20.13;11.70;;;;;;;19.73;65.30;101371.69;4964689;28;20042;-85
2023/06/10 06:32:27;;;;;;;20.08;11.68;;;;;;;19.83;64.43;101379.91;4947828;28;20475;-85
2023/06/10 06:34:54;;;;;;;16.30;11.60;;;;;;;19.89;64.64;101384.78;4962073;28;20039;-85
2023/06/10 06:37:24;;;;;;;72.15;16.08;;;;;;;19.94;64.79;101387.06;4962942;28;20047;-85
2023/06/10 06:39:54;;;;;;;19.67;11.98;;;;;;;20.03;64.38;101383.34;4948556;29;20035;-84
2023/06/10 06:42:20;;;;;;;20.58;10.82;;;;;;;20.08;63.29;101392.03;4949325;28;20181;-86
2023/06/10 06:44:59;;;;;;;18.77;11.57;;;;;;;20.18;65.19;101392.78;4964828;28;20114;-84
2023/06/10 06:47:26;;;;;;;15.77;11.40;;;;;;;20.23;63.98;101389.56;4949925;28;20163;-85
2023/06/10 06:49:51;;;;;;;16.10;9.95;;;;;;;20.31;62.99;101382.19;4948094;29;20058;-85
2023/06/10 06:52:17;;;;;;;17.75;10.90;;;;;;;20.39;63.10;101390.56;4948610;29;20085;-84
2023/06/10 06:54:44;;;;;;;22.27;11.75;;;;;;;20.40;63.73;101369.31;4949179;29;20031;-85
2023/06/10 06:57:10;;;;;;;13.10;10.27;;;;;;;20.52;62.55;101387.41;4949320;28;20073;-85
2023/06/10 06:59:36;;;;;;;127.45;17.50;;;;;;;20.56;62.43;101387.91;4949071;28;20043;-85
2023/06/10 07:02:03;;;;;;;74.20;13.90;;;;;;;20.57;63.20;101393.31;4964533;28;20042;-84
2023/06/10 07:04:28;;;;;;;387.52;34.10;;;;;;;20.64;61.78;101391.59;4946437;28;20043;-85
2023/06/10 07:06:54;;;;;;;22.63;11.38;;;;;;;20.70;62.04;101391.97;4947836;28;20122;-85
2023/06/10 07:09:19;;;;;;;18.15;10.30;;;;;;;20.78;62.98;101392.03;4946831;28;20031;-84
2023/06/10 07:11:45;;;;;;;21.52;10.10;;;;;;;20.89;62.65;101398.16;4949064;29;20079;-84
2023/06/10 07:14:10;;;;;;;18.95;10.25;;;;;;;21.01;62.34;101400.63;4947823;28;20035;-85
2023/06/10 07:16:35;;;;;;;14.20;10.40;;;;;;;21.05;60.95;101394.59;4948013;29;20042;-85
2023/06/10 07:19:01;;;;;;;17.80;9.02;;;;;;;21.14;61.02;101390.81;4949193;29;20042;-85
2023/06/10 07:21:28;;;;;;;15.90;9.77;;;;;;;21.25;60.39;101400.72;4947810;29;20506;-85
2023/06/10 07:23:54;;;;;;;15.52;9.35;;;;;;;21.39;60.48;101405.66;4947995;29;20448;-85
2023/06/10 07:26:22;;;;;;;12.82;9.02;;;;;;;21.49;60.88;101405.50;4948485;28;20039;-84
2023/06/10 07:28:48;;;;;;;14.05;9.52;;;;;;;21.55;60.29;101403.97;4946370;29;20082;-84
2023/06/10 07:31:13;;;;;;;13.05;9.70;;;;;;;21.68;60.51;101397.94;4949637;28;20038;-85
2023/06/10 07:33:39;;;;;;;16.80;9.00;;;;;;;21.76;59.60;101390.50;4944789;29;20071;-84
2023/06/10 07:36:05;;;;;;;14.18;9.68;;;;;;;21.86;59.78;101402.28;4946473;29;20359;-85
2023/06/10 07:38:30;;;;;;;22.80;10.25;;;;;;;21.94;57.37;101400.56;4949506;28;20375;-84
2023/06/10 07:40:56;;;;;;;16.77;9.82;;;;;;;22.03;57.92;101405.09;4953893;28;20039;-85
2023/06/10 07:43:22;;;;;;;13.13;9.55;;;;;;;22.05;58.69;101386.38;4948797;28;20031;-85
2023/06/10 07:45:47;;;;;;;14.10;9.75;;;;;;;22.21;56.96;101404.97;4951344;29;20042;-84
2023/06/10 07:48:12;;;;;;;14.95;10.07;;;;;;;22.27;58.56;101401.47;4935475;29;20138;-85
2023/06/10 07:50:38;;;;;;;14.88;8.70;;;;;;;22.30;57.16;101401.13;4967078;28;20421;-85
2023/06/10 07:53:03;;;;;;;13.07;8.57;;;;;;;22.39;56.72;101400.09;4953062;28;20093;-85
2023/06/10 07:55:29;;;;;;;15.63;8.95;;;;;;;22.49;56.25;101399.91;4950191;29;20043;-85
2023/06/10 07:57:54;;;;;;;14.18;8.52;;;;;;;22.60;56.09;101392.06;4949991;28;20078;-84
2023/06/10 08:00:20;;;;;;;14.07;8.95;;;;;;;22.75;55.11;101413.53;4951402;29;20750;-85
2023/06/10 08:02:46;;;;;;;15.95;9.00;;;;;;;22.83;53.88;101408.84;4967545;28;20437;-85
2023/06/10 08:05:12;;;;;;;13.30;8.50;;;;;;;22.90;55.45;101403.50;4950665;29;20185;-84
2023/06/10 08:07:37;;;;;;;29.23;8.75;;;;;;;23.27;55.10;101401.94;4952395;28;20527;-85
2023/06/10 08:10:05;;;;;;;16.20;9.20;;;;;;;23.65;53.15;101406.63;4935305;29;20050;-85
2023/06/10 08:12:30;;;;;;;13.02;7.95;;;;;;;24.30;54.42;101409.97;4934330;29;20038;-85
2023/06/10 08:14:56;;;;;;;13.35;8.27;;;;;;;24.78;49.89;101403.09;4949935;28;20031;-85
2023/06/10 08:17:21;;;;;;;15.13;7.30;;;;;;;25.30;49.21;101398.50;4950885;29;20463;-85
2023/06/10 08:19:47;;;;;;;9.25;6.97;;;;;;;25.74;48.60;101389.16;4964767;28;20019;-86
2023/06/10 08:22:12;;;;;;;13.55;7.38;;;;;;;26.19;47.52;101397.16;4966113;28;20084;-84
2023/06/10 08:24:38;;;;;;;12.68;8.07;;;;;;;26.64;45.33;101392.22;4933860;29;20035;-85
2023/06/10 08:27:03;;;;;;;9.60;7.38;;;;;;;26.96;44.28;101396.28;4950969;28;20054;-85
2023/06/10 08:29:31;;;;;;;12.95;8.57;;;;;;;27.24;42.45;101401.00;4950735;28;20046;-84
2023/06/10 08:31:56;;;;;;;10.95;7.32;;;;;;;27.54;42.70;101401.53;4951838;28;20093;-85
2023/06/10 08:34:21;;;;;;;12.82;7.55;;;;;;;28.00;39.57;101397.19;4947736;29;20122;-84
2023/06/10 08:36:47;;;;;;;10.13;7.18;;;;;;;28.30;42.60;101400.44;4966654;28;20113;-85
2023/06/10 08:39:12;;;;;;;11.77;7.45;;;;;;;28.41;40.60;101409.09;4949370;28;20050;-85
2023/06/10 08:41:43;;;;;;;11.57;6.93;;;;;;;28.60;40.40;101404.56;4951321;29;20046;-85
2023/06/10 08:44:28;;;;;;;12.32;7.60;;;;;;;28.79;41.74;101400.00;4948356;29;20043;-84
2023/06/10 08:46:58;;;;;;;12.18;7.55;;;;;;;28.88;39.52;101401.50;4947988;29;20077;-85
2023/06/10 08:49:27;;;;;;;137.55;13.85;;;;;;;28.68;40.06;101409.09;4934082;29;20039;-84
2023/06/10 08:51:59;;;;;;;19.75;7.63;;;;;;;28.85;39.72;101415.94;4952043;29;20062;-84
2023/06/10 08:54:28;;;;;;;10.73;7.32;;;;;;;29.12;38.28;101407.50;4961810;28;20050;-84
2023/06/10 08:56:57;;;;;;;11.48;6.70;;;;;;;29.55;39.99;101401.34;4933982;29;20039;-85
2023/06/10 08:59:24;;;;;;;10.55;6.55;;;;;;;30.03;38.41;101406.44;4949510;28;20039;-85
2023/06/10 09:01:51;;;;;;;21.10;7.45;;;;;;;30.18;35.66;101402.28;4950351;29;20039;-84
2023/06/10 09:04:18;;;;;;;11.52;6.30;;;;;;;30.54;38.07;101408.25;4950883;28;20058;-84
2023/06/10 09:06:44;;;;;;;14.52;7.00;;;;;;;30.48;35.97;101398.78;4966414;28;20137;-85
2023/06/10 09:09:10;;;;;;;8.90;6.60;;;;;;;30.23;34.79;101396.84;4949623;29;20031;-84
2023/06/10 09:11:37;;;;;;;11.32;6.55;;;;;;;30.39;35.49;101400.16;4950250;29;20039;-84
2023/06/10 09:14:03;;;;;;;10.20;6.93;;;;;;;30.19;36.22;101395.56;4953205;28;20039;-85
2023/06/10 09:16:28;;;;;;;10.10;6.53;;;;;;;30.33;33.55;101396.31;4938476;29;20042;-84
2023/06/10 09:18:55;;;;;;;8.73;5.70;;;;;;;30.69;36.10;101387.16;4951401;28;20225;-85
2023/06/10 09:21:24;;;;;;;82.75;10.70;;;;;;;31.07;33.69;101388.94;4950703;28;20067;-85
2023/06/10 09:23:50;;;;;;;15.68;6.38;;;;;;;31.34;34.49;101383.91;4965721;28;20051;-85
2023/06/10 09:26:16;;;;;;;9.57;6.43;;;;;;;31.48;31.57;101393.88;4933016;29;20415;-84
2023/06/10 09:28:49;;;;;;;9.52;5.82;;;;;;;31.61;33.91;101386.34;4964396;28;20479;-85
2023/06/10 09:31:18;;;;;;;133.45;13.50;;;;;;;31.98;32.71;101392.75;4965380;28;20125;-85
2023/06/10 09:33:46;;;;;;;10.68;6.20;;;;;;;31.94;32.03;101391.50;4949785;28;20039;-85
2023/06/10 09:36:21;;;;;;;7.68;5.80;;;;;;;32.19;31.62;101391.34;4949059;29;20043;-84
2023/06/10 09:38:50;;;;;;;8.65;6.13;;;;;;;32.13;32.96;101393.19;4949462;29;20142;-85
2023/06/10 09:41:16;;;;;;;9.52;6.22;;;;;;;32.24;32.43;101399.94;4949925;28;20062;-84
2023/06/10 09:43:46;;;;;;;8.20;6.45;;;;;;;32.46;32.76;101397.44;4932317;29;20035;-84
2023/06/10 09:46:16;;;;;;;138.13;13.75;;;;;;;32.39;32.00;101388.25;4950846;28;20046;-84
2023/06/10 09:48:46;;;;;;;16.60;6.60;;;;;;;32.44;30.11;101399.63;4948697;29;20027;-84
2023/06/10 09:51:13;;;;;;;11.23;6.82;;;;;;;32.56;33.72;101389.25;4948879;28;20066;-85
2023/06/10 09:53:39;;;;;;;10.13;6.78;;;;;;;32.60;33.89;101381.16;4949224;29;20098;-85
2023/06/10 09:56:05;;;;;;;16.40;7.18;;;;;;;32.02;31.06;101387.50;4950454;28;20039;-84
2023/06/10 09:58:53;;;;;;;10.23;6.75;;;;;;;31.82;34.18;101385.84;4949014;28;20467;-84
2023/06/10 10:01:18;;;;;;;9.07;6.20;;;;;;;32.24;35.66;101380.22;4950527;28;20043;-85
2023/06/10 10:03:50;;;;;;;11.88;6.75;;;;;;;32.37;32.41;101382.84;4945716;29;20042;-85
2023/06/10 10:06:17;;;;;;;11.15;6.80;;;;;;;32.07;31.29;101398.91;4962586;28;20552;-84
2023/06/10 10:08:43;;;;;;;12.18;7.30;;;;;;;32.13;32.30;101381.94;4944701;29;20068;-84
2023/06/10 10:11:10;;;;;;;11.48;6.63;;;;;;;32.34;30.65;101380.47;4930358;29;20054;-84
2023/06/10 10:13:35;;;;;;;8.27;6.43;;;;;;;32.68;31.08;101377.97;4938199;29;20506;-84
2023/06/10 10:16:09;;;;;;;10.18;6.60;;;;;;;33.01;32.45;101372.56;4948291;29;20035;-84
2023/06/10 10:18:38;;;;;;;7.65;6.43;;;;;;;33.29;32.29;101370.06;4949688;29;20082;-84
2023/06/10 10:21:11;;;;;;;14.70;7.25;;;;;;;32.57;29.78;101381.66;4945813;29;20484;-83
2023/06/10 10:23:44;;;;;;;8.75;6.55;;;;;;;32.14;31.35;101378.00;4939826;29;20554;-84
2023/06/10 10:26:11;;;;;;;10.60;7.18;;;;;;;31.73;31.51;101365.59;4959841;28;20214;-84
2023/06/10 10:28:53;;;;;;;10.27;6.63;;;;;;;31.68;31.79;101361.78;4960214;28;20046;-83
2023/06/10 10:31:21;;;;;;;10.20;6.25;;;;;;;31.75;33.10;101369.03;4945309;29;20127;-84
2023/06/10 10:34:00;;;;;;;10.23;6.68;;;;;;;31.87;33.19;101365.44;4961753;28;20046;-82
2023/06/10 10:36:27;;;;;;;11.73;6.57;;;;;;;31.66;30.83;101366.78;4948433;28;20075;-82
2023/06/10 10:38:53;;;;;;;9.80;6.78;;;;;;;31.40;31.82;101368.03;4948655;29;20070;-84
2023/06/10 10:41:20;;;;;;;7.95;6.07;;;;;;;31.85;32.73;101370.44;4949381;28;20109;-84
2023/06/10 10:43:46;;;;;;;9.95;6.38;;;;;;;32.22;31.26;101369.22;4947579;29;20098;-84
2023/06/10 10:46:14;;;;;;;9.15;6.45;;;;;;;32.14;30.08;101363.06;4950167;28;20536;-84
2023/06/10 10:48:41;;;;;;;21.30;6.90;;;;;;;32.18;30.64;101369.94;4948570;29;20372;-84
2023/06/10 10:51:07;;;;;;;9.52;6.82;;;;;;;32.02;30.10;101367.81;4948353;29;20142;-84
2023/06/10 10:53:32;;;;;;;149.13;14.00;;;;;;;32.42;32.37;101360.44;4948853;29;20055;-85
2023/06/10 10:56:05;;;;;;;90.90;11.45;;;;;;;32.82;31.83;101365.31;4948416;28;20098;-84
2023/06/10 10:58:31;;;;;;;23.45;6.93;;;;;;;32.94;29.27;101362.53;4948766;28;20035;-84
2023/06/10 11:00:57;;;;;;;10.93;6.88;;;;;;;33.19;31.55;101362.25;4949745;28;20110;-84
2023/06/10 11:03:29;;;;;;;11.00;6.60;;;;;;;33.38;28.68;101360.94;4947939;29;20134;-83
2023/06/10 11:05:57;;;;;;;9.23;6.57;;;;;;;33.67;29.53;101356.22;4947924;29;20054;-84
2023/06/10 11:08:28;;;;;;;8.30;6.28;;;;;;;33.61;29.04;101356.38;4947775;28;20575;-83
2023/06/10 11:10:53;;;;;;;;;;;;;;;33.85;29.68;101343.00;4931961;29;20074;-84
2023/06/10 11:13:21;;;;;;;9.98;5.82;;;;;;;33.70;29.12;101349.22;4948021;29;19957;-84